Time;durP1;ratioP1;P1;durP2;ratioP2;P2;SDS_P1;SDS_P2;PMS_P1;PMS_P2;Temp;Humidity;BMP_temperature;BMP_pressure;BME280_temperature;BME280_humidity;BME280_pressure;Samples;Min_cycle;Max_cycle;Signal;HPM_P1;HPM_P2
2022/11/02 00:01:19;;;;;;;8.13;2.60;;;;;;;;;;5003567;28;20488;-45
2022/11/02 00:03:45;;;;;;;11.97;2.47;;;;;;;;;;5002560;28;20440;-47
2022/11/02 00:06:11;;;;;;;8.20;3.07;;;;;;;;;;5004000;28;20489;-46
2022/11/02 00:08:37;;;;;;;5.67;2.10;;;;;;;;;;5009538;28;20416;-48
2022/11/02 00:11:03;;;;;;;7.53;2.00;;;;;;;;;;5006851;28;20419;-48
2022/11/02 00:13:29;;;;;;;10.27;2.00;;;;;;;;;;5013397;28;20531;-47
2022/11/02 00:15:55;;;;;;;5.23;2.10;;;;;;;;;;5009961;28;20415;-44
2022/11/02 00:18:21;;;;;;;16.40;2.67;;;;;;;;;;5004072;28;20422;-45
2022/11/02 00:20:47;;;;;;;6.33;2.17;;;;;;;;;;5005441;28;20418;-45
2022/11/02 00:23:13;;;;;;;6.57;2.67;;;;;;;;;;5005177;28;20431;-46
2022/11/02 00:25:41;;;;;;;6.90;2.10;;;;;;;;;;5009078;28;20516;-43
2022/11/02 00:28:07;;;;;;;6.93;1.90;;;;;;;;;;5006065;28;20517;-44
2022/11/02 00:30:33;;;;;;;13.00;2.97;;;;;;;;;;5009047;28;20426;-45
2022/11/02 00:32:59;;;;;;;9.20;2.70;;;;;;;;;;5011565;28;20454;-43
2022/11/02 00:35:25;;;;;;;12.53;3.87;;;;;;;;;;5005235;28;20434;-45
2022/11/02 00:37:51;;;;;;;6.60;2.40;;;;;;;;;;5012568;28;20426;-45
2022/11/02 00:40:17;;;;;;;8.60;4.00;;;;;;;;;;5010393;28;20969;-45
2022/11/02 00:42:43;;;;;;;9.50;2.57;;;;;;;;;;5011455;28;20417;-46
2022/11/02 00:45:09;;;;;;;8.57;2.60;;;;;;;;;;5007950;28;20607;-45
2022/11/02 00:47:35;;;;;;;7.30;2.10;;;;;;;;;;5010287;28;20422;-47
2022/11/02 00:50:01;;;;;;;10.40;2.77;;;;;;;;;;5009122;28;20763;-44
2022/11/02 00:52:27;;;;;;;5.10;2.10;;;;;;;;;;5022523;28;20950;-43
2022/11/02 00:54:53;;;;;;;8.27;2.00;;;;;;;;;;5011800;28;20438;-43
2022/11/02 00:57:19;;;;;;;5.93;2.20;;;;;;;;;;5007449;28;20416;-44
2022/11/02 00:59:45;;;;;;;7.93;2.67;;;;;;;;;;5008994;28;20443;-45
2022/11/02 01:02:11;;;;;;;8.00;2.50;;;;;;;;;;5009216;28;20415;-47
2022/11/02 01:04:37;;;;;;;6.07;2.13;;;;;;;;;;5008045;28;20507;-45
2022/11/02 01:07:03;;;;;;;9.20;2.40;;;;;;;;;;5008294;28;20417;-45
2022/11/02 01:09:29;;;;;;;7.77;2.10;;;;;;;;;;5014802;28;20444;-45
2022/11/02 01:11:56;;;;;;;6.60;2.20;;;;;;;;;;5011528;28;20831;-45
2022/11/02 01:14:22;;;;;;;6.17;2.03;;;;;;;;;;5006282;28;20959;-46
2022/11/02 01:16:48;;;;;;;8.93;2.97;;;;;;;;;;5007306;28;20425;-45
2022/11/02 01:19:14;;;;;;;6.07;2.30;;;;;;;;;;5008813;28;20931;-45
2022/11/02 01:21:40;;;;;;;12.63;2.60;;;;;;;;;;5011746;28;20379;-47
2022/11/02 01:24:06;;;;;;;10.80;3.03;;;;;;;;;;5008396;28;20506;-45
2022/11/02 01:26:32;;;;;;;11.60;2.33;;;;;;;;;;5012273;28;20790;-46
2022/11/02 01:28:58;;;;;;;5.03;1.67;;;;;;;;;;5009450;28;20413;-45
2022/11/02 01:31:24;;;;;;;5.27;2.30;;;;;;;;;;5005087;28;20973;-46
2022/11/02 01:33:50;;;;;;;12.57;2.70;;;;;;;;;;5010872;28;20885;-44
2022/11/02 01:36:20;;;;;;;3.97;1.90;;;;;;;;;;5009111;28;20429;-43
2022/11/02 01:38:46;;;;;;;6.50;2.63;;;;;;;;;;5010090;28;21021;-46
2022/11/02 01:41:12;;;;;;;10.77;2.63;;;;;;;;;;5008771;28;20420;-44
2022/11/02 01:43:41;;;;;;;9.13;2.43;;;;;;;;;;5008892;28;20435;-45
2022/11/02 01:46:10;;;;;;;14.30;2.87;;;;;;;;;;5008880;28;20992;-46
2022/11/02 01:48:37;;;;;;;6.17;2.33;;;;;;;;;;5007423;28;20407;-45
2022/11/02 01:51:09;;;;;;;6.73;1.93;;;;;;;;;;5013467;28;20409;-43
2022/11/02 01:53:36;;;;;;;11.03;2.33;;;;;;;;;;5000115;28;20466;-47
2022/11/02 01:56:02;;;;;;;6.27;2.07;;;;;;;;;;5006069;28;20433;-46
2022/11/02 01:58:29;;;;;;;16.23;2.40;;;;;;;;;;5009682;28;20780;-45
2022/11/02 02:00:55;;;;;;;4.93;2.33;;;;;;;;;;5006988;28;20414;-45
2022/11/02 02:03:21;;;;;;;5.33;2.40;;;;;;;;;;5008363;28;20417;-46
2022/11/02 02:05:49;;;;;;;10.67;2.60;;;;;;;;;;5010307;28;20532;-45
2022/11/02 02:08:17;;;;;;;13.27;3.23;;;;;;;;;;5011155;28;20907;-45
2022/11/02 02:10:43;;;;;;;10.03;2.10;;;;;;;;;;5005899;28;20425;-44
2022/11/02 02:13:09;;;;;;;10.07;2.60;;;;;;;;;;5006634;28;20782;-44
2022/11/02 02:15:41;;;;;;;7.50;2.10;;;;;;;;;;5009453;28;20757;-45
2022/11/02 02:18:11;;;;;;;6.50;2.10;;;;;;;;;;5007370;28;20468;-47
2022/11/02 02:20:41;;;;;;;11.57;2.37;;;;;;;;;;5009374;28;20472;-43
2022/11/02 02:23:26;;;;;;;10.93;2.50;;;;;;;;;;5002978;28;20398;-45
2022/11/02 02:25:52;;;;;;;6.50;2.13;;;;;;;;;;5006664;28;20766;-45
2022/11/02 02:28:37;;;;;;;6.67;2.60;;;;;;;;;;5007456;28;20422;-45
2022/11/02 02:31:08;;;;;;;5.00;2.50;;;;;;;;;;5005397;28;20411;-45
2022/11/02 02:33:53;;;;;;;7.60;2.50;;;;;;;;;;5000533;28;20421;-44
2022/11/02 02:36:34;;;;;;;5.17;2.10;;;;;;;;;;5010731;28;20449;-45
2022/11/02 02:39:15;;;;;;;8.10;2.60;;;;;;;;;;5013096;28;20418;-46
2022/11/02 02:41:48;;;;;;;4.93;2.50;;;;;;;;;;4998270;28;20390;-45
2022/11/02 02:44:17;;;;;;;8.33;2.43;;;;;;;;;;5015521;28;20505;-44
2022/11/02 02:46:46;;;;;;;9.10;2.50;;;;;;;;;;5008330;28;20424;-44
2022/11/02 02:49:15;;;;;;;7.47;2.17;;;;;;;;;;5004602;28;20775;-45
2022/11/02 02:51:42;;;;;;;10.67;4.50;;;;;;;;;;5006437;28;20402;-46
2022/11/02 02:54:11;;;;;;;10.20;2.70;;;;;;;;;;5002858;28;20431;-46
2022/11/02 02:56:49;;;;;;;6.93;2.50;;;;;;;;;;5005957;28;20496;-45
2022/11/02 02:59:20;;;;;;;6.30;2.00;;;;;;;;;;5006392;28;20506;-45
2022/11/02 03:01:46;;;;;;;10.63;2.43;;;;;;;;;;5005952;28;20414;-47
2022/11/02 03:04:12;;;;;;;6.00;2.70;;;;;;;;;;5010798;28;20468;-45
2022/11/02 03:06:39;;;;;;;3.23;2.30;;;;;;;;;;5005406;28;20503;-44
2022/11/02 03:09:09;;;;;;;8.37;2.50;;;;;;;;;;5002498;28;20425;-45
2022/11/02 03:11:39;;;;;;;8.37;2.77;;;;;;;;;;5004864;28;20925;-44
2022/11/02 03:14:23;;;;;;;7.33;2.17;;;;;;;;;;5004476;28;20422;-45
2022/11/02 03:17:04;;;;;;;6.60;3.10;;;;;;;;;;4999398;28;20410;-44
2022/11/02 03:19:36;;;;;;;6.53;2.20;;;;;;;;;;5007003;28;20415;-45
2022/11/02 03:22:06;;;;;;;7.93;2.83;;;;;;;;;;5009077;28;20407;-46
2022/11/02 03:24:40;;;;;;;8.83;2.60;;;;;;;;;;5003749;28;20465;-45
2022/11/02 03:27:19;;;;;;;11.07;3.50;;;;;;;;;;5004756;28;20407;-46
2022/11/02 03:30:03;;;;;;;12.43;2.87;;;;;;;;;;5005026;28;20863;-45
2022/11/02 03:32:38;;;;;;;8.07;2.20;;;;;;;;;;5010057;28;20416;-44
2022/11/02 03:35:08;;;;;;;8.43;2.20;;;;;;;;;;5008186;28;20462;-45
2022/11/02 03:37:37;;;;;;;10.20;2.57;;;;;;;;;;4994467;28;20447;-45
2022/11/02 03:40:07;;;;;;;9.63;3.63;;;;;;;;;;5000717;28;20423;-44
2022/11/02 03:42:34;;;;;;;8.40;2.73;;;;;;;;;;4999108;28;20429;-45
2022/11/02 03:45:09;;;;;;;9.13;2.67;;;;;;;;;;5004576;28;20458;-45
2022/11/02 03:47:36;;;;;;;10.57;2.27;;;;;;;;;;4996398;28;20421;-45
2022/11/02 03:50:04;;;;;;;10.97;2.47;;;;;;;;;;5004923;28;20446;-44
2022/11/02 03:52:32;;;;;;;8.13;2.80;;;;;;;;;;5007279;28;20458;-46
2022/11/02 03:55:07;;;;;;;6.70;2.30;;;;;;;;;;5004037;28;20436;-44
2022/11/02 03:57:53;;;;;;;4.57;2.20;;;;;;;;;;4997934;28;20625;-44
2022/11/02 04:00:21;;;;;;;4.97;2.10;;;;;;;;;;5008868;28;20420;-44
2022/11/02 04:02:48;;;;;;;8.70;2.60;;;;;;;;;;5004666;28;20946;-46
2022/11/02 04:05:14;;;;;;;10.03;2.30;;;;;;;;;;4998211;28;20553;-42
2022/11/02 04:10:27;;;;;;;5.93;2.40;;;;;;;;;;5002725;28;20417;-44
2022/11/02 04:15:37;;;;;;;12.03;2.37;;;;;;;;;;4992578;28;20769;-44
2022/11/02 04:20:51;;;;;;;4.77;2.33;;;;;;;;;;4993875;28;20417;-43
2022/11/02 04:26:02;;;;;;;6.50;3.17;;;;;;;;;;4999647;28;21044;-43
2022/11/02 04:28:28;;;;;;;2.93;1.67;;;;;;;;;;5004683;28;20942;-42
2022/11/02 04:30:54;;;;;;;9.50;2.90;;;;;;;;;;5001506;28;20410;-43
2022/11/02 04:33:32;;;;;;;4.87;1.90;;;;;;;;;;4996326;28;20443;-43
2022/11/02 04:36:06;;;;;;;13.10;2.17;;;;;;;;;;4995664;28;20488;-44
2022/11/02 04:38:41;;;;;;;9.07;2.50;;;;;;;;;;4994079;28;20511;-42
2022/11/02 04:43:52;;;;;;;7.10;2.30;;;;;;;;;;4999679;28;20420;-42
2022/11/02 04:46:18;;;;;;;7.70;2.00;;;;;;;;;;5000757;28;20540;-42
2022/11/02 04:48:44;;;;;;;4.60;2.17;;;;;;;;;;4999372;28;20468;-42
2022/11/02 04:51:10;;;;;;;11.43;2.80;;;;;;;;;;4999784;28;20957;-43
2022/11/02 04:53:36;;;;;;;14.03;3.47;;;;;;;;;;4998961;28;20804;-44
2022/11/02 04:56:02;;;;;;;6.53;2.00;;;;;;;;;;5007331;28;20439;-43
2022/11/02 04:58:27;;;;;;;10.43;2.50;;;;;;;;;;5001448;28;20419;-43
2022/11/02 05:00:53;;;;;;;3.63;2.27;;;;;;;;;;5001437;28;20413;-43
2022/11/02 05:03:19;;;;;;;8.23;1.63;;;;;;;;;;5000505;28;20444;-43
2022/11/02 05:05:45;;;;;;;3.27;1.87;;;;;;;;;;5002481;28;20492;-43
2022/11/02 05:08:11;;;;;;;4.93;1.90;;;;;;;;;;5003444;28;20480;-43
2022/11/02 05:10:37;;;;;;;4.90;2.40;;;;;;;;;;5006851;28;20420;-43
2022/11/02 05:13:03;;;;;;;10.93;2.37;;;;;;;;;;5005791;28;20499;-43
2022/11/02 05:15:29;;;;;;;8.70;1.87;;;;;;;;;;4997733;28;20757;-42
2022/11/02 05:17:55;;;;;;;4.13;2.17;;;;;;;;;;5002137;28;20931;-42
2022/11/02 05:20:21;;;;;;;11.40;2.20;;;;;;;;;;5004447;28;20512;-42
2022/11/02 05:22:47;;;;;;;3.73;2.40;;;;;;;;;;5004966;28;20411;-43
2022/11/02 05:25:13;;;;;;;6.93;2.50;;;;;;;;;;5003025;28;20451;-42
2022/11/02 05:27:39;;;;;;;8.13;3.00;;;;;;;;;;5004566;28;20920;-43
2022/11/02 05:30:05;;;;;;;5.13;1.97;;;;;;;;;;5004152;28;20426;-42
2022/11/02 05:32:31;;;;;;;11.80;2.00;;;;;;;;;;4994888;28;20425;-43
2022/11/02 05:34:57;;;;;;;8.90;2.00;;;;;;;;;;4993213;28;20433;-43
2022/11/02 05:37:23;;;;;;;6.07;2.40;;;;;;;;;;5001864;28;20559;-43
2022/11/02 05:39:49;;;;;;;7.53;3.03;;;;;;;;;;5007197;28;20961;-43
2022/11/02 05:42:15;;;;;;;6.77;3.33;;;;;;;;;;5003316;28;20779;-43
2022/11/02 05:44:41;;;;;;;6.20;2.27;;;;;;;;;;5001978;28;20844;-43
2022/11/02 05:47:07;;;;;;;9.33;2.67;;;;;;;;;;5009930;28;20782;-43
2022/11/02 05:49:33;;;;;;;6.03;2.03;;;;;;;;;;5001811;28;20915;-42
2022/11/02 05:51:59;;;;;;;9.77;2.10;;;;;;;;;;5006437;28;20477;-42
2022/11/02 05:54:25;;;;;;;7.73;2.50;;;;;;;;;;5000530;28;20931;-41
2022/11/02 05:56:51;;;;;;;10.23;2.67;;;;;;;;;;5000556;28;20559;-46
2022/11/02 05:59:17;;;;;;;5.73;2.27;;;;;;;;;;5002692;28;20422;-46
2022/11/02 06:01:43;;;;;;;5.90;2.60;;;;;;;;;;5010246;28;20414;-46
2022/11/02 06:04:09;;;;;;;7.07;1.97;;;;;;;;;;5004149;28;20432;-45
2022/11/02 06:06:35;;;;;;;16.53;3.53;;;;;;;;;;5008538;28;20452;-44
2022/11/02 06:09:01;;;;;;;5.27;2.10;;;;;;;;;;5007311;28;20487;-43
2022/11/02 06:11:27;;;;;;;5.57;2.20;;;;;;;;;;5001529;28;20419;-43
2022/11/02 06:13:53;;;;;;;6.20;2.27;;;;;;;;;;5001245;28;21134;-45
2022/11/02 06:16:19;;;;;;;9.07;2.30;;;;;;;;;;5006274;28;20765;-45
2022/11/02 06:18:45;;;;;;;4.53;2.13;;;;;;;;;;5006534;28;20438;-45
2022/11/02 06:21:11;;;;;;;7.33;2.40;;;;;;;;;;5004433;28;20417;-45
2022/11/02 06:23:38;;;;;;;7.27;2.20;;;;;;;;;;5006556;28;20432;-45
2022/11/02 06:26:04;;;;;;;7.90;2.13;;;;;;;;;;5005843;28;20468;-45
2022/11/02 06:28:30;;;;;;;4.40;2.20;;;;;;;;;;4999575;28;20423;-45
2022/11/02 06:30:56;;;;;;;5.03;2.27;;;;;;;;;;5007004;28;21008;-44
2022/11/02 06:33:22;;;;;;;4.70;2.13;;;;;;;;;;5004071;28;20447;-45
2022/11/02 06:35:50;;;;;;;8.13;1.83;;;;;;;;;;5004396;28;20411;-47
2022/11/02 06:38:16;;;;;;;7.53;1.90;;;;;;;;;;5004002;28;21195;-43
2022/11/02 06:40:42;;;;;;;8.17;1.90;;;;;;;;;;5003406;28;20989;-46
2022/11/02 06:43:08;;;;;;;12.80;2.30;;;;;;;;;;5003640;28;20910;-44
2022/11/02 06:45:34;;;;;;;5.70;2.50;;;;;;;;;;5002764;28;20468;-46
2022/11/02 06:48:01;;;;;;;12.60;2.30;;;;;;;;;;5007811;28;20409;-45
2022/11/02 06:50:28;;;;;;;5.93;1.90;;;;;;;;;;5003448;28;20503;-44
2022/11/02 06:52:54;;;;;;;6.47;2.13;;;;;;;;;;5001531;28;20414;-45
2022/11/02 06:55:20;;;;;;;6.93;2.30;;;;;;;;;;5002613;28;20395;-44
2022/11/02 06:57:46;;;;;;;5.70;2.10;;;;;;;;;;5004954;28;20382;-46
2022/11/02 07:00:16;;;;;;;3.03;2.10;;;;;;;;;;5004087;28;20427;-42
2022/11/02 07:02:42;;;;;;;5.77;2.33;;;;;;;;;;5003750;28;20427;-43
2022/11/02 07:05:08;;;;;;;5.60;2.10;;;;;;;;;;5004198;28;20468;-42
2022/11/02 07:07:34;;;;;;;11.93;1.97;;;;;;;;;;4998659;28;20427;-42
2022/11/02 07:10:00;;;;;;;9.33;2.00;;;;;;;;;;4996752;28;20418;-42
2022/11/02 07:12:26;;;;;;;10.43;2.50;;;;;;;;;;5006986;28;20412;-44
2022/11/02 07:14:52;;;;;;;5.83;2.07;;;;;;;;;;5002523;28;20455;-44
2022/11/02 07:17:18;;;;;;;11.67;2.50;;;;;;;;;;5001390;28;20416;-41
2022/11/02 07:19:44;;;;;;;6.73;2.40;;;;;;;;;;5001935;28;20423;-41
2022/11/02 07:22:10;;;;;;;12.70;2.53;;;;;;;;;;5002631;28;20420;-41
2022/11/02 07:24:36;;;;;;;5.17;2.20;;;;;;;;;;4996653;28;20471;-43
2022/11/02 07:27:02;;;;;;;8.37;2.67;;;;;;;;;;5003186;28;20414;-41
2022/11/02 07:29:28;;;;;;;13.07;2.43;;;;;;;;;;5000599;28;20412;-41
2022/11/02 07:31:54;;;;;;;9.43;1.90;;;;;;;;;;5000881;28;20927;-41
2022/11/02 07:34:20;;;;;;;11.07;2.33;;;;;;;;;;5001645;28;20502;-42
2022/11/02 07:36:46;;;;;;;9.57;2.23;;;;;;;;;;4999914;28;20998;-42
2022/11/02 07:39:12;;;;;;;15.23;2.40;;;;;;;;;;5000533;28;20418;-42
2022/11/02 07:41:38;;;;;;;8.20;2.30;;;;;;;;;;4999599;28;20493;-41
2022/11/02 07:44:04;;;;;;;5.83;2.07;;;;;;;;;;5005198;28;20435;-42
2022/11/02 07:46:30;;;;;;;5.13;2.30;;;;;;;;;;4999302;28;20465;-41
2022/11/02 07:48:56;;;;;;;4.97;2.07;;;;;;;;;;4998539;28;20475;-43
2022/11/02 07:51:22;;;;;;;7.33;2.13;;;;;;;;;;5000714;28;20401;-42
2022/11/02 07:53:48;;;;;;;14.07;2.40;;;;;;;;;;4999274;28;20783;-42
2022/11/02 07:56:14;;;;;;;5.10;1.83;;;;;;;;;;5001012;28;20580;-42
2022/11/02 07:58:40;;;;;;;7.07;2.17;;;;;;;;;;5003709;28;20941;-42
2022/11/02 08:01:06;;;;;;;6.07;1.97;;;;;;;;;;5002672;28;20920;-42
2022/11/02 08:03:32;;;;;;;5.60;1.87;;;;;;;;;;4997448;28;20511;-42
2022/11/02 08:06:01;;;;;;;9.30;1.60;;;;;;;;;;4996906;28;20459;-42
2022/11/02 08:08:27;;;;;;;7.33;2.07;;;;;;;;;;5002159;28;20476;-42
2022/11/02 08:10:52;;;;;;;6.13;2.30;;;;;;;;;;5000723;28;20405;-43
2022/11/02 08:13:20;;;;;;;9.03;2.37;;;;;;;;;;5000980;28;20426;-43
2022/11/02 08:15:52;;;;;;;13.03;2.70;;;;;;;;;;5001469;28;20545;-42
2022/11/02 08:18:19;;;;;;;8.53;3.67;;;;;;;;;;4999975;28;20419;-42
2022/11/02 08:20:46;;;;;;;7.23;2.00;;;;;;;;;;5003084;28;20483;-42
2022/11/02 08:23:13;;;;;;;6.93;2.17;;;;;;;;;;5000679;28;20745;-43
2022/11/02 08:25:39;;;;;;;8.70;2.47;;;;;;;;;;4991231;28;20490;-45
2022/11/02 08:28:06;;;;;;;10.40;1.93;;;;;;;;;;4998004;28;20501;-45
2022/11/02 08:30:32;;;;;;;7.77;2.63;;;;;;;;;;5022266;28;20411;-44
2022/11/02 08:33:03;;;;;;;7.40;2.10;;;;;;;;;;5005524;28;20401;-44
2022/11/02 08:35:29;;;;;;;6.83;2.27;;;;;;;;;;5007254;28;20516;-45
2022/11/02 08:37:55;;;;;;;6.97;2.33;;;;;;;;;;5004810;28;20489;-43
2022/11/02 08:40:22;;;;;;;8.20;2.43;;;;;;;;;;5010780;28;20417;-43
2022/11/02 08:42:48;;;;;;;4.97;2.10;;;;;;;;;;5008517;28;20421;-45
2022/11/02 08:45:14;;;;;;;5.83;2.70;;;;;;;;;;5004840;28;21019;-47
2022/11/02 08:47:40;;;;;;;9.30;2.13;;;;;;;;;;5007204;28;20420;-45
2022/11/02 08:50:07;;;;;;;6.27;2.30;;;;;;;;;;5007004;28;20417;-45
2022/11/02 08:52:36;;;;;;;7.13;2.37;;;;;;;;;;5010060;28;20417;-45
2022/11/02 08:55:02;;;;;;;11.30;3.30;;;;;;;;;;5009072;28;20967;-45
2022/11/02 08:57:29;;;;;;;6.40;2.17;;;;;;;;;;5015630;28;20749;-47
2022/11/02 08:59:54;;;;;;;12.23;2.00;;;;;;;;;;5014111;28;20397;-45
2022/11/02 09:02:20;;;;;;;6.83;2.13;;;;;;;;;;5003983;28;20826;-43
2022/11/02 09:04:46;;;;;;;7.83;1.80;;;;;;;;;;5009924;28;20462;-45
2022/11/02 09:07:12;;;;;;;8.83;2.43;;;;;;;;;;5008529;28;20423;-47
2022/11/02 09:09:38;;;;;;;7.17;1.90;;;;;;;;;;5010156;28;20413;-46
2022/11/02 09:12:04;;;;;;;11.40;2.77;;;;;;;;;;5006843;28;20797;-45
2022/11/02 09:14:30;;;;;;;6.27;2.10;;;;;;;;;;5005961;28;20414;-45
2022/11/02 09:16:56;;;;;;;5.20;1.80;;;;;;;;;;5006022;28;20458;-46
2022/11/02 09:19:22;;;;;;;9.77;2.87;;;;;;;;;;5007387;28;20409;-45
2022/11/02 09:21:50;;;;;;;9.13;2.30;;;;;;;;;;5025603;28;20424;-45
2022/11/02 09:24:16;;;;;;;4.50;1.63;;;;;;;;;;5006225;28;20438;-45
2022/11/02 09:26:42;;;;;;;10.43;2.40;;;;;;;;;;5022035;28;20527;-45
2022/11/02 09:29:08;;;;;;;5.63;2.00;;;;;;;;;;5005014;28;20931;-45
2022/11/02 09:31:33;;;;;;;6.03;2.37;;;;;;;;;;5007514;28;20411;-46
2022/11/02 09:33:59;;;;;;;13.90;2.67;;;;;;;;;;5006867;28;20928;-45
2022/11/02 09:36:25;;;;;;;3.50;1.87;;;;;;;;;;5012970;28;20860;-45
2022/11/02 09:38:51;;;;;;;6.70;2.20;;;;;;;;;;5007696;28;20412;-45
2022/11/02 09:41:26;;;;;;;3.63;1.73;;;;;;;;;;5002707;28;20423;-44
2022/11/02 09:44:11;;;;;;;8.93;2.90;;;;;;;;;;5004448;28;20440;-45
2022/11/02 09:46:38;;;;;;;10.50;3.03;;;;;;;;;;5003202;28;20557;-47
2022/11/02 09:49:12;;;;;;;12.50;2.73;;;;;;;;;;5006572;28;20403;-44
2022/11/02 09:51:43;;;;;;;17.60;2.67;;;;;;;;;;4995925;28;20423;-46
2022/11/02 09:54:15;;;;;;;4.53;2.00;;;;;;;;;;4999077;28;20874;-42
2022/11/02 09:56:42;;;;;;;4.40;2.37;;;;;;;;;;5002954;28;20780;-42
2022/11/02 09:59:14;;;;;;;5.40;1.87;;;;;;;;;;5002864;28;20909;-42
2022/11/02 10:01:54;;;;;;;5.77;2.00;;;;;;;;;;5001084;28;20911;-42
2022/11/02 10:04:39;;;;;;;4.67;1.83;;;;;;;;;;5007005;28;20439;-42
2022/11/02 10:07:13;;;;;;;10.57;2.20;;;;;;;;;;5005794;28;20444;-45
2022/11/02 10:09:54;;;;;;;4.83;1.83;;;;;;;;;;5005658;28;20413;-42
2022/11/02 10:12:24;;;;;;;6.73;2.07;;;;;;;;;;4997669;28;20439;-42
2022/11/02 10:15:01;;;;;;;9.43;2.70;;;;;;;;;;5004223;28;20487;-42
2022/11/02 10:17:29;;;;;;;5.63;2.20;;;;;;;;;;5002660;28;20488;-42
2022/11/02 10:19:57;;;;;;;5.43;2.30;;;;;;;;;;5002312;28;20400;-42
2022/11/02 10:22:28;;;;;;;6.60;2.50;;;;;;;;;;5001910;28;20412;-45
2022/11/02 10:24:55;;;;;;;5.40;1.90;;;;;;;;;;4995877;28;20491;-43
2022/11/02 10:27:34;;;;;;;3.40;1.80;;;;;;;;;;5002607;28;20446;-42
2022/11/02 10:30:29;;;;;;;6.50;2.40;;;;;;;;;;5000023;28;20907;-42
2022/11/02 10:32:55;;;;;;;8.70;2.10;;;;;;;;;;4992348;28;20941;-42
2022/11/02 10:35:32;;;;;;;5.00;1.80;;;;;;;;;;5005414;28;20569;-42
2022/11/02 10:38:17;;;;;;;9.37;1.90;;;;;;;;;;5002868;28;20389;-42
2022/11/02 10:41:06;;;;;;;5.87;2.33;;;;;;;;;;4993047;28;20413;-42
2022/11/02 10:43:32;;;;;;;8.00;1.83;;;;;;;;;;4985075;28;20408;-42
2022/11/02 10:46:10;;;;;;;6.37;1.90;;;;;;;;;;5003563;28;20436;-42
2022/11/02 10:48:39;;;;;;;11.27;2.23;;;;;;;;;;4993862;28;20449;-42
2022/11/02 10:51:12;;;;;;;4.20;2.33;;;;;;;;;;4999023;28;20419;-45
2022/11/02 10:53:42;;;;;;;6.87;2.07;;;;;;;;;;4999907;28;20516;-42
2022/11/02 10:56:27;;;;;;;4.27;1.90;;;;;;;;;;5000688;28;20405;-42
2022/11/02 10:58:59;;;;;;;8.03;2.53;;;;;;;;;;5000021;28;20928;-42
2022/11/02 11:01:26;;;;;;;4.97;1.83;;;;;;;;;;5002759;28;20457;-42
2022/11/02 11:04:01;;;;;;;6.77;2.20;;;;;;;;;;5001189;28;20466;-42
2022/11/02 11:06:29;;;;;;;9.20;2.33;;;;;;;;;;5003620;28;20552;-42
2022/11/02 11:08:59;;;;;;;4.83;1.67;;;;;;;;;;5000146;28;20421;-43
2022/11/02 11:11:27;;;;;;;6.53;1.47;;;;;;;;;;4995678;28;20533;-42
2022/11/02 11:14:00;;;;;;;2.60;1.47;;;;;;;;;;5002861;28;20967;-42
2022/11/02 11:16:45;;;;;;;4.50;1.53;;;;;;;;;;5000014;28;20449;-44
2022/11/02 11:19:29;;;;;;;3.40;1.50;;;;;;;;;;4998346;28;20420;-43
2022/11/02 11:21:55;;;;;;;6.40;1.60;;;;;;;;;;4997931;28;20400;-43
2022/11/02 11:24:23;;;;;;;4.07;1.50;;;;;;;;;;4999813;28;20428;-43
2022/11/02 11:27:14;;;;;;;4.93;1.67;;;;;;;;;;4999932;28;20929;-43
2022/11/02 11:29:51;;;;;;;7.37;1.70;;;;;;;;;;4992278;28;20403;-43
2022/11/02 11:32:18;;;;;;;6.07;2.33;;;;;;;;;;4999810;28;20396;-43
2022/11/02 11:34:46;;;;;;;4.90;1.60;;;;;;;;;;5000907;28;20424;-43
2022/11/02 11:37:14;;;;;;;4.40;1.70;;;;;;;;;;5016772;28;20944;-43
2022/11/02 11:39:41;;;;;;;4.20;1.40;;;;;;;;;;4996124;28;20406;-43
2022/11/02 11:42:13;;;;;;;2.80;1.70;;;;;;;;;;5003074;28;20412;-43
2022/11/02 11:44:43;;;;;;;8.33;2.10;;;;;;;;;;4991719;28;20516;-43
2022/11/02 11:47:10;;;;;;;10.80;2.90;;;;;;;;;;5002571;28;20452;-43
2022/11/02 11:49:39;;;;;;;7.73;4.73;;;;;;;;;;4987845;28;20420;-46
2022/11/02 11:52:05;;;;;;;6.90;1.80;;;;;;;;;;4991581;28;21157;-46
2022/11/02 11:54:32;;;;;;;7.77;1.60;;;;;;;;;;4999888;28;20464;-44
2022/11/02 11:57:20;;;;;;;5.50;1.90;;;;;;;;;;4993956;28;20507;-44
2022/11/02 11:59:48;;;;;;;4.67;1.77;;;;;;;;;;4997862;28;20405;-43
2022/11/02 12:02:24;;;;;;;8.53;1.93;;;;;;;;;;4997188;28;20944;-43
2022/11/02 12:04:50;;;;;;;5.37;2.43;;;;;;;;;;4992295;28;20468;-45
2022/11/02 12:07:34;;;;;;;8.50;1.70;;;;;;;;;;4998876;28;20412;-45
2022/11/02 12:10:03;;;;;;;3.53;1.63;;;;;;;;;;5010707;28;20411;-44
2022/11/02 12:12:48;;;;;;;4.90;1.80;;;;;;;;;;5009376;28;20926;-46
2022/11/02 12:15:19;;;;;;;9.77;2.30;;;;;;;;;;5007066;28;20443;-47
2022/11/02 12:17:48;;;;;;;3.80;1.77;;;;;;;;;;5006506;28;20412;-44
2022/11/02 12:20:33;;;;;;;3.63;1.90;;;;;;;;;;5007014;28;20423;-45
2022/11/02 12:23:02;;;;;;;4.43;1.70;;;;;;;;;;5001202;28;20422;-45
2022/11/02 12:25:40;;;;;;;9.70;1.80;;;;;;;;;;5010113;28;20869;-44
2022/11/02 12:28:13;;;;;;;4.73;1.93;;;;;;;;;;5005759;28;20901;-45
2022/11/02 12:30:44;;;;;;;4.10;2.10;;;;;;;;;;4993092;28;20479;-46
2022/11/02 12:33:31;;;;;;;2.57;1.30;;;;;;;;;;4996044;28;20803;-45
2022/11/02 12:36:20;;;;;;;3.27;1.80;;;;;;;;;;4982288;28;20446;-45
2022/11/02 12:39:06;;;;;;;14.23;1.60;;;;;;;;;;4982866;28;20482;-46
2022/11/02 12:41:37;;;;;;;8.50;1.43;;;;;;;;;;4992628;28;20415;-44
2022/11/02 12:44:16;;;;;;;3.47;2.00;;;;;;;;;;4993497;28;20829;-43
2022/11/02 12:46:56;;;;;;;5.37;2.00;;;;;;;;;;4994146;28;20559;-42
2022/11/02 12:49:45;;;;;;;3.43;1.43;;;;;;;;;;4996558;28;20415;-42
2022/11/02 12:52:21;;;;;;;8.30;2.10;;;;;;;;;;5004622;28;20453;-44
2022/11/02 12:54:54;;;;;;;13.90;2.23;;;;;;;;;;5005448;28;20512;-42
2022/11/02 12:57:22;;;;;;;5.93;2.37;;;;;;;;;;5000773;28;20474;-42
2022/11/02 12:59:53;;;;;;;8.83;1.90;;;;;;;;;;5000732;28;20446;-43
2022/11/02 13:02:22;;;;;;;8.60;2.27;;;;;;;;;;5002969;28;20435;-42
2022/11/02 13:04:55;;;;;;;6.77;2.17;;;;;;;;;;5005456;28;20451;-47
2022/11/02 13:07:24;;;;;;;6.20;2.57;;;;;;;;;;5002771;28;20418;-45
2022/11/02 13:10:05;;;;;;;3.77;1.60;;;;;;;;;;5003895;28;20464;-42
2022/11/02 13:12:32;;;;;;;5.30;2.03;;;;;;;;;;5000993;28;20460;-42
2022/11/02 13:14:59;;;;;;;9.50;2.10;;;;;;;;;;5000272;28;20453;-42
2022/11/02 13:17:46;;;;;;;8.67;1.70;;;;;;;;;;4991645;28;20850;-43
2022/11/02 13:20:20;;;;;;;5.77;2.20;;;;;;;;;;4991332;28;20427;-42
2022/11/02 13:25:52;;;;;;;7.93;2.00;;;;;;;;;;5021498;28;20539;-43
2022/11/02 13:28:30;;;;;;;6.87;2.23;;;;;;;;;;5025973;28;20555;-43
2022/11/02 13:30:56;;;;;;;8.00;1.80;;;;;;;;;;5034426;28;20825;-43
2022/11/02 13:33:25;;;;;;;6.37;1.90;;;;;;;;;;5032907;28;20414;-43
2022/11/02 13:35:53;;;;;;;5.80;2.07;;;;;;;;;;5020270;28;20403;-44
2022/11/02 13:38:19;;;;;;;3.87;1.70;;;;;;;;;;5016916;28;20948;-44
2022/11/02 13:40:48;;;;;;;5.27;1.90;;;;;;;;;;5010561;28;20485;-43
2022/11/02 13:43:34;;;;;;;5.93;2.33;;;;;;;;;;5020098;28;20442;-44
2022/11/02 13:46:19;;;;;;;13.13;2.07;;;;;;;;;;5021151;28;20458;-44
2022/11/02 13:48:46;;;;;;;6.00;1.80;;;;;;;;;;5014891;28;20449;-44
2022/11/02 13:51:27;;;;;;;6.67;2.00;;;;;;;;;;5026987;28;20420;-44
2022/11/02 13:53:55;;;;;;;4.43;1.47;;;;;;;;;;5020839;28;20447;-44
2022/11/02 13:56:23;;;;;;;8.67;1.70;;;;;;;;;;5023776;28;20439;-45
2022/11/02 13:58:54;;;;;;;7.67;1.90;;;;;;;;;;5020489;28;20559;-43
2022/11/02 14:01:21;;;;;;;5.33;1.73;;;;;;;;;;5022981;28;20421;-44
2022/11/02 14:04:06;;;;;;;6.20;2.00;;;;;;;;;;5023570;28;20442;-44
2022/11/02 14:06:33;;;;;;;5.70;2.30;;;;;;;;;;5024270;28;20462;-43
2022/11/02 14:09:05;;;;;;;6.03;1.90;;;;;;;;;;5021426;28;20449;-43
2022/11/02 14:11:35;;;;;;;7.57;2.93;;;;;;;;;;5011944;28;20430;-43
2022/11/02 14:14:01;;;;;;;5.73;1.80;;;;;;;;;;5011999;28;20427;-44
2022/11/02 14:16:39;;;;;;;3.80;2.20;;;;;;;;;;5015186;28;20414;-44
2022/11/02 14:19:17;;;;;;;5.13;1.93;;;;;;;;;;5018973;28;20425;-43
2022/11/02 14:21:59;;;;;;;4.70;1.87;;;;;;;;;;5009461;28;20488;-43
2022/11/02 14:24:37;;;;;;;7.57;2.20;;;;;;;;;;5018374;28;20915;-44
2022/11/02 14:27:03;;;;;;;6.67;2.10;;;;;;;;;;5017381;28;20427;-44
2022/11/02 14:29:35;;;;;;;11.07;2.30;;;;;;;;;;5012281;28;20461;-44
2022/11/02 14:32:04;;;;;;;4.87;1.90;;;;;;;;;;5007678;28;20423;-46
2022/11/02 14:34:35;;;;;;;5.63;2.10;;;;;;;;;;5008886;28;20429;-44
2022/11/02 14:37:09;;;;;;;6.10;2.30;;;;;;;;;;5012665;28;20439;-44
2022/11/02 14:39:42;;;;;;;7.50;2.77;;;;;;;;;;5008758;28;20410;-43
2022/11/02 14:42:11;;;;;;;7.83;2.20;;;;;;;;;;5007686;28;20987;-44
2022/11/02 14:44:41;;;;;;;9.73;2.73;;;;;;;;;;5009711;28;20441;-44
2022/11/02 14:47:12;;;;;;;7.23;2.50;;;;;;;;;;5023955;28;20472;-43
2022/11/02 14:50:04;;;;;;;8.93;3.60;;;;;;;;;;5016836;28;20447;-43
2022/11/02 14:52:34;;;;;;;12.17;3.73;;;;;;;;;;5007398;28;20431;-46
2022/11/02 14:55:02;;;;;;;8.63;2.10;;;;;;;;;;5018357;28;20397;-44
2022/11/02 14:57:35;;;;;;;11.20;2.50;;;;;;;;;;5020455;28;20426;-46
2022/11/02 15:00:04;;;;;;;7.33;2.43;;;;;;;;;;5020140;28;20415;-44
2022/11/02 15:02:38;;;;;;;6.83;2.70;;;;;;;;;;5027608;28;20413;-43
2022/11/02 15:05:06;;;;;;;6.50;2.30;;;;;;;;;;5020100;28;20432;-45
2022/11/02 15:07:50;;;;;;;9.50;2.80;;;;;;;;;;5024346;28;20389;-44
2022/11/02 15:10:16;;;;;;;7.80;2.27;;;;;;;;;;5023282;28;20451;-46
2022/11/02 15:12:46;;;;;;;7.17;2.17;;;;;;;;;;5017430;28;20441;-46